Time;durP1;ratioP1;P1;durP2;ratioP2;P2;SDS_P1;SDS_P2;PMS_P1;PMS_P2;Temp;Humidity;BMP_temperature;BMP_pressure;BME280_temperature;BME280_humidity;BME280_pressure;Samples;Min_cycle;Max_cycle;Signal;HPM_P1;HPM_P2
2022/12/20 00:00:09;;;;;;;12.23;6.85;;;;;;;;;;5080396;28;20036;-68
2022/12/20 00:02:54;;;;;;;16.10;7.87;;;;;;;;;;5075720;28;20028;-69
2022/12/20 00:05:40;;;;;;;11.55;6.60;;;;;;;;;;5075669;28;20036;-73
2022/12/20 00:08:26;;;;;;;11.10;6.43;;;;;;;;;;5076125;28;20029;-72
2022/12/20 00:11:12;;;;;;;12.80;6.95;;;;;;;;;;5075254;28;20043;-73
2022/12/20 00:13:57;;;;;;;13.30;6.72;;;;;;;;;;5075317;28;20040;-72
2022/12/20 00:16:43;;;;;;;10.65;6.47;;;;;;;;;;5075442;28;20030;-73
2022/12/20 00:19:29;;;;;;;13.25;7.85;;;;;;;;;;5075284;28;20070;-72
2022/12/20 00:22:14;;;;;;;10.48;6.25;;;;;;;;;;5074672;28;20024;-80
2022/12/20 00:25:00;;;;;;;12.50;7.03;;;;;;;;;;5075765;28;20033;-80
2022/12/20 00:27:48;;;;;;;11.98;6.25;;;;;;;;;;5075195;28;20029;-80
2022/12/20 00:30:34;;;;;;;11.52;6.55;;;;;;;;;;5082349;28;20060;-80
2022/12/20 00:33:20;;;;;;;15.43;6.70;;;;;;;;;;5075388;28;20158;-79
2022/12/20 00:36:06;;;;;;;12.70;6.72;;;;;;;;;;5074931;28;20375;-81
2022/12/20 00:38:52;;;;;;;11.30;6.07;;;;;;;;;;5074874;28;20036;-69
2022/12/20 00:41:38;;;;;;;16.98;7.50;;;;;;;;;;5075124;28;20071;-69
2022/12/20 00:44:23;;;;;;;13.35;7.43;;;;;;;;;;5074212;28;20463;-67
2022/12/20 00:47:09;;;;;;;12.07;7.40;;;;;;;;;;5075361;28;20031;-68
2022/12/20 00:49:54;;;;;;;13.02;6.45;;;;;;;;;;5075401;28;20416;-68
2022/12/20 00:52:40;;;;;;;12.63;7.18;;;;;;;;;;5074793;28;20032;-68
2022/12/20 00:55:25;;;;;;;15.15;7.25;;;;;;;;;;5074627;28;20031;-68
2022/12/20 00:58:11;;;;;;;15.98;7.93;;;;;;;;;;5074763;28;20072;-81
2022/12/20 01:00:57;;;;;;;14.27;7.10;;;;;;;;;;5075710;28;20068;-68
2022/12/20 01:03:43;;;;;;;12.07;7.25;;;;;;;;;;5080125;28;20024;-68
2022/12/20 01:06:29;;;;;;;14.20;8.60;;;;;;;;;;5074197;28;20042;-69
2022/12/20 01:09:14;;;;;;;14.50;8.23;;;;;;;;;;5074391;28;20463;-67
2022/12/20 01:12:00;;;;;;;11.60;7.53;;;;;;;;;;5074176;28;20047;-67
2022/12/20 01:14:46;;;;;;;14.05;7.45;;;;;;;;;;5074809;28;20016;-68
2022/12/20 01:17:31;;;;;;;12.48;7.25;;;;;;;;;;5074223;28;20078;-68
2022/12/20 01:20:17;;;;;;;15.27;7.55;;;;;;;;;;5074159;28;20459;-68
2022/12/20 01:23:02;;;;;;;19.45;10.02;;;;;;;;;;5073891;28;20032;-68
2022/12/20 01:25:49;;;;;;;17.77;11.02;;;;;;;;;;5058381;28;20052;-68
2022/12/20 01:28:36;;;;;;;17.83;10.07;;;;;;;;;;5072759;28;20460;-69
2022/12/20 01:31:22;;;;;;;21.27;11.48;;;;;;;;;;5072702;28;20040;-68
2022/12/20 01:34:07;;;;;;;19.25;10.68;;;;;;;;;;5078831;28;20104;-73
2022/12/20 01:36:53;;;;;;;17.15;10.77;;;;;;;;;;5074028;28;20033;-67
2022/12/20 01:39:38;;;;;;;13.90;9.45;;;;;;;;;;5073723;28;20024;-68
2022/12/20 01:42:24;;;;;;;18.80;10.38;;;;;;;;;;5058420;28;20064;-69
2022/12/20 01:45:15;;;;;;;18.67;10.75;;;;;;;;;;5073622;28;20115;-67
2022/12/20 01:48:00;;;;;;;21.30;11.73;;;;;;;;;;5072092;28;20111;-67
2022/12/20 01:50:47;;;;;;;17.35;9.90;;;;;;;;;;5072529;28;20082;-67
2022/12/20 01:53:32;;;;;;;18.73;10.40;;;;;;;;;;5073521;28;20033;-72
2022/12/20 01:56:18;;;;;;;20.20;11.40;;;;;;;;;;5072260;28;20360;-75
2022/12/20 01:59:03;;;;;;;20.38;10.70;;;;;;;;;;5073367;28;20395;-74
2022/12/20 02:01:49;;;;;;;18.42;10.40;;;;;;;;;;5073199;28;20040;-75
2022/12/20 02:04:34;;;;;;;19.35;11.38;;;;;;;;;;5073117;28;20043;-75
2022/12/20 02:07:22;;;;;;;18.02;10.82;;;;;;;;;;5078534;28;20385;-75
2022/12/20 02:10:09;;;;;;;19.98;10.38;;;;;;;;;;5073165;28;20090;-68
2022/12/20 02:12:58;;;;;;;18.25;11.65;;;;;;;;;;5071768;28;20078;-70
2022/12/20 02:15:54;;;;;;;22.05;11.73;;;;;;;;;;5072976;28;20107;-70
2022/12/20 02:18:51;;;;;;;18.45;11.38;;;;;;;;;;5072885;28;20443;-70
2022/12/20 02:21:43;;;;;;;23.15;12.98;;;;;;;;;;5071872;28;20103;-70
2022/12/20 02:24:53;;;;;;;18.20;11.48;;;;;;;;;;5072883;28;20115;-69
2022/12/20 02:27:53;;;;;;;21.15;12.27;;;;;;;;;;5071492;28;20048;-70
2022/12/20 02:30:40;;;;;;;19.77;12.27;;;;;;;;;;5071446;28;20021;-76
2022/12/20 02:33:27;;;;;;;19.83;11.55;;;;;;;;;;5072135;28;20060;-75
2022/12/20 02:36:17;;;;;;;20.58;12.20;;;;;;;;;;5071588;28;20086;-75
2022/12/20 02:39:02;;;;;;;;;;;;;;;;;;5079471;28;20124;-75
2022/12/20 02:41:56;;;;;;;19.10;11.45;;;;;;;;;;5073079;28;19912;-75
2022/12/20 02:47:57;;;;;;;22.65;13.45;;;;;;;;;;5071971;28;20048;-70
2022/12/20 02:50:45;;;;;;;17.38;11.48;;;;;;;;;;5073021;28;20036;-69
2022/12/20 02:53:31;;;;;;;19.98;11.73;;;;;;;;;;5071279;28;20094;-70
2022/12/20 02:56:28;;;;;;;18.50;12.48;;;;;;;;;;5071615;28;20067;-70
2022/12/20 02:59:20;;;;;;;19.77;12.40;;;;;;;;;;5071779;28;20394;-69
2022/12/20 03:02:06;;;;;;;19.60;11.15;;;;;;;;;;5071475;28;20064;-69
2022/12/20 03:04:52;;;;;;;24.60;11.20;;;;;;;;;;5071746;28;20050;-76
2022/12/20 03:07:37;;;;;;;19.00;12.05;;;;;;;;;;5071357;28;20486;-81
2022/12/20 03:10:23;;;;;;;18.15;11.30;;;;;;;;;;5080310;28;20052;-75
2022/12/20 03:13:09;;;;;;;17.35;10.70;;;;;;;;;;5070960;28;20036;-76
2022/12/20 03:15:54;;;;;;;20.17;11.48;;;;;;;;;;5072423;28;20441;-77
2022/12/20 03:18:40;;;;;;;18.45;11.02;;;;;;;;;;5072414;28;20029;-76
2022/12/20 03:21:26;;;;;;;21.65;11.40;;;;;;;;;;5071309;28;20117;-76
2022/12/20 03:24:12;;;;;;;14.90;10.13;;;;;;;;;;5072364;28;20033;-82
2022/12/20 03:26:58;;;;;;;16.45;10.18;;;;;;;;;;5072309;28;20032;-72
2022/12/20 03:29:44;;;;;;;19.00;10.55;;;;;;;;;;5072280;28;20021;-72
2022/12/20 03:32:30;;;;;;;18.50;10.80;;;;;;;;;;5071626;28;20432;-72
2022/12/20 03:35:15;;;;;;;16.90;10.23;;;;;;;;;;5072328;28;20040;-72
2022/12/20 03:38:01;;;;;;;18.00;10.63;;;;;;;;;;5056242;28;20530;-73
2022/12/20 03:40:47;;;;;;;16.60;9.82;;;;;;;;;;5073616;28;20033;-72
2022/12/20 03:43:32;;;;;;;17.27;10.70;;;;;;;;;;5077383;28;20463;-81
2022/12/20 03:46:18;;;;;;;18.02;9.98;;;;;;;;;;5071067;28;20033;-73
2022/12/20 03:49:03;;;;;;;16.77;9.90;;;;;;;;;;5071581;28;20051;-72
2022/12/20 03:51:49;;;;;;;17.88;9.98;;;;;;;;;;5071942;28;20032;-72
2022/12/20 03:54:35;;;;;;;15.75;8.65;;;;;;;;;;5072122;28;20028;-74
2022/12/20 03:57:20;;;;;;;15.75;9.63;;;;;;;;;;5072203;28;20035;-73
2022/12/20 04:00:06;;;;;;;18.00;9.45;;;;;;;;;;5072009;28;20037;-68
2022/12/20 04:02:52;;;;;;;15.38;8.98;;;;;;;;;;5071217;28;20028;-67
2022/12/20 04:05:37;;;;;;;14.43;8.32;;;;;;;;;;5074255;28;20458;-68
2022/12/20 04:08:23;;;;;;;15.88;8.63;;;;;;;;;;5076042;28;20033;-67
2022/12/20 04:11:15;;;;;;;14.70;9.02;;;;;;;;;;5061141;28;20060;-67
2022/12/20 04:14:00;;;;;;;15.27;10.05;;;;;;;;;;5081740;28;20323;-68
2022/12/20 04:16:46;;;;;;;18.38;9.02;;;;;;;;;;5075664;28;20036;-67
2022/12/20 04:19:31;;;;;;;16.42;8.73;;;;;;;;;;5075340;28;20044;-69
2022/12/20 04:22:17;;;;;;;14.88;8.90;;;;;;;;;;5075373;28;20032;-68
2022/12/20 04:25:02;;;;;;;15.63;8.63;;;;;;;;;;5074979;28;20055;-69
2022/12/20 04:27:48;;;;;;;16.58;9.52;;;;;;;;;;5074808;28;20025;-69
2022/12/20 04:30:33;;;;;;;13.57;7.78;;;;;;;;;;5075236;28;20032;-69
2022/12/20 04:33:19;;;;;;;14.13;8.32;;;;;;;;;;5060582;28;20043;-69
2022/12/20 04:36:05;;;;;;;12.30;7.07;;;;;;;;;;5075119;28;20037;-68
2022/12/20 04:38:50;;;;;;;12.70;7.30;;;;;;;;;;5075054;28;20036;-69
2022/12/20 04:41:36;;;;;;;14.65;8.13;;;;;;;;;;5074752;28;20043;-68
2022/12/20 04:44:22;;;;;;;15.07;8.43;;;;;;;;;;5074754;28;20033;-70
2022/12/20 04:47:09;;;;;;;15.10;8.43;;;;;;;;;;5082530;28;20029;-68
2022/12/20 04:49:54;;;;;;;13.40;7.78;;;;;;;;;;5074785;28;20407;-68
2022/12/20 04:55:44;;;;;;;15.77;8.10;;;;;;;;;;5075287;28;20060;-81
2022/12/20 04:58:30;;;;;;;13.13;6.95;;;;;;;;;;5074673;28;20103;-67
2022/12/20 05:01:15;;;;;;;18.95;7.25;;;;;;;;;;5075205;28;20031;-68
2022/12/20 05:04:01;;;;;;;13.02;7.18;;;;;;;;;;5074685;28;20033;-68
2022/12/20 05:06:47;;;;;;;14.75;6.90;;;;;;;;;;5074412;28;20036;-68
2022/12/20 05:09:32;;;;;;;12.40;7.65;;;;;;;;;;5074414;28;20024;-68
2022/12/20 05:12:18;;;;;;;12.00;7.10;;;;;;;;;;5075003;28;20036;-67
2022/12/20 05:15:03;;;;;;;18.13;7.68;;;;;;;;;;5075519;28;20032;-75
2022/12/20 05:17:49;;;;;;;11.02;6.50;;;;;;;;;;5078541;28;20055;-66
2022/12/20 05:20:35;;;;;;;12.25;6.90;;;;;;;;;;5079981;28;20354;-68
2022/12/20 05:26:25;;;;;;;12.07;6.35;;;;;;;;;;5074611;28;20024;-67
2022/12/20 05:29:10;;;;;;;12.13;7.32;;;;;;;;;;5074586;28;20078;-67
2022/12/20 05:31:56;;;;;;;17.10;8.10;;;;;;;;;;5076161;28;20036;-68
2022/12/20 05:34:41;;;;;;;13.00;7.10;;;;;;;;;;5074043;28;20387;-70
2022/12/20 05:37:27;;;;;;;12.85;7.05;;;;;;;;;;5059786;28;20032;-75
2022/12/20 05:40:12;;;;;;;14.05;7.78;;;;;;;;;;5074421;28;20086;-75
2022/12/20 05:42:58;;;;;;;10.75;6.65;;;;;;;;;;5073704;28;20025;-76
2022/12/20 05:45:47;;;;;;;15.15;8.32;;;;;;;;;;5073719;28;20033;-76
2022/12/20 05:48:33;;;;;;;10.60;6.40;;;;;;;;;;5073790;28;20035;-76
2022/12/20 05:51:18;;;;;;;10.82;6.78;;;;;;;;;;5066845;28;20395;-68
2022/12/20 05:54:04;;;;;;;12.40;6.78;;;;;;;;;;5073721;28;20033;-67
2022/12/20 05:56:50;;;;;;;14.40;6.93;;;;;;;;;;5059080;28;20115;-68
2022/12/20 05:59:35;;;;;;;12.43;6.30;;;;;;;;;;5073478;28;20029;-67
2022/12/20 06:02:21;;;;;;;12.18;7.78;;;;;;;;;;5073328;28;20040;-67
2022/12/20 06:05:06;;;;;;;10.10;5.75;;;;;;;;;;5073322;28;20189;-67
2022/12/20 06:07:52;;;;;;;13.32;6.45;;;;;;;;;;5073144;28;20076;-67
2022/12/20 06:10:38;;;;;;;11.38;5.85;;;;;;;;;;5058812;28;20391;-69
2022/12/20 06:13:24;;;;;;;11.02;6.90;;;;;;;;;;5058082;28;20391;-74
2022/12/20 06:16:10;;;;;;;16.33;6.93;;;;;;;;;;5073227;28;20086;-75
2022/12/20 06:18:55;;;;;;;13.40;6.63;;;;;;;;;;5058613;28;20417;-70
2022/12/20 06:21:41;;;;;;;12.23;6.40;;;;;;;;;;5077018;28;20031;-73
2022/12/20 06:24:27;;;;;;;9.93;5.70;;;;;;;;;;5061260;28;20028;-70
2022/12/20 06:27:12;;;;;;;10.75;5.78;;;;;;;;;;5072599;28;20032;-71
2022/12/20 06:29:58;;;;;;;9.35;5.03;;;;;;;;;;5073036;28;20387;-64
2022/12/20 06:32:44;;;;;;;9.85;5.25;;;;;;;;;;5073860;28;20028;-77
2022/12/20 06:35:29;;;;;;;11.63;6.35;;;;;;;;;;5072976;28;20028;-76
2022/12/20 06:38:15;;;;;;;8.68;5.68;;;;;;;;;;5072957;28;20039;-78
2022/12/20 06:41:00;;;;;;;11.48;5.75;;;;;;;;;;5072603;28;20103;-78
2022/12/20 06:43:46;;;;;;;9.10;5.07;;;;;;;;;;5072738;28;20028;-77
2022/12/20 06:46:31;;;;;;;12.63;5.15;;;;;;;;;;5073018;28;20123;-72
2022/12/20 06:49:17;;;;;;;16.65;6.18;;;;;;;;;;5072358;28;20128;-66
2022/12/20 06:52:03;;;;;;;9.68;5.50;;;;;;;;;;5058152;28;20094;-66
2022/12/20 06:54:48;;;;;;;9.43;4.93;;;;;;;;;;5080806;28;20028;-66
2022/12/20 06:57:34;;;;;;;9.88;5.45;;;;;;;;;;5072799;28;20035;-67
2022/12/20 07:00:20;;;;;;;10.27;5.25;;;;;;;;;;5072770;28;20040;-67
2022/12/20 07:03:05;;;;;;;9.55;5.00;;;;;;;;;;5073006;28;20055;-67
2022/12/20 07:05:52;;;;;;;9.52;4.68;;;;;;;;;;5072537;28;20037;-70
2022/12/20 07:08:37;;;;;;;8.52;5.10;;;;;;;;;;5072334;28;20036;-76
2022/12/20 07:11:23;;;;;;;12.43;5.50;;;;;;;;;;5072571;28;20037;-76
2022/12/20 07:14:08;;;;;;;11.13;5.10;;;;;;;;;;5073235;28;20028;-77
2022/12/20 07:16:54;;;;;;;9.38;5.35;;;;;;;;;;5072417;28;20028;-75
2022/12/20 07:19:40;;;;;;;9.90;5.22;;;;;;;;;;5072669;28;20070;-73
2022/12/20 07:22:25;;;;;;;8.32;4.80;;;;;;;;;;5072527;28;20025;-78
2022/12/20 07:25:11;;;;;;;9.23;4.80;;;;;;;;;;5073356;28;20138;-66
2022/12/20 07:27:57;;;;;;;9.10;5.15;;;;;;;;;;5076901;28;20060;-68
2022/12/20 07:30:42;;;;;;;11.50;5.53;;;;;;;;;;5072656;28;20032;-67
2022/12/20 07:33:28;;;;;;;9.00;4.88;;;;;;;;;;5072339;28;20020;-68
2022/12/20 07:36:17;;;;;;;9.40;5.00;;;;;;;;;;5072228;28;20031;-67
2022/12/20 07:39:02;;;;;;;9.23;5.30;;;;;;;;;;5072119;28;20021;-66
2022/12/20 07:41:48;;;;;;;9.15;5.10;;;;;;;;;;5061529;28;20103;-78
2022/12/20 07:44:34;;;;;;;12.63;5.00;;;;;;;;;;5076333;28;20024;-82
2022/12/20 07:47:19;;;;;;;11.43;5.00;;;;;;;;;;5076005;28;20086;-84
2022/12/20 07:50:05;;;;;;;8.32;4.93;;;;;;;;;;5077127;28;20027;-84
2022/12/20 07:52:51;;;;;;;10.48;5.93;;;;;;;;;;5076143;28;20029;-84
2022/12/20 07:55:38;;;;;;;12.73;7.10;;;;;;;;;;5076846;28;20033;-81
2022/12/20 07:58:24;;;;;;;11.93;5.45;;;;;;;;;;5083677;28;20044;-85
2022/12/20 08:01:10;;;;;;;9.10;5.32;;;;;;;;;;5076553;28;20032;-79
2022/12/20 08:04:01;;;;;;;10.38;4.93;;;;;;;;;;5075744;28;20036;-68
2022/12/20 08:06:48;;;;;;;11.55;4.88;;;;;;;;;;5076205;28;20035;-68
2022/12/20 08:09:36;;;;;;;7.28;4.28;;;;;;;;;;5075635;28;20029;-66
2022/12/20 08:12:22;;;;;;;9.85;5.03;;;;;;;;;;5076266;28;20081;-68
2022/12/20 08:15:08;;;;;;;9.68;4.50;;;;;;;;;;5075325;28;20024;-68
2022/12/20 08:17:54;;;;;;;10.95;4.45;;;;;;;;;;5075089;28;20024;-75
2022/12/20 08:20:39;;;;;;;18.35;6.47;;;;;;;;;;5075422;28;20033;-74
2022/12/20 08:23:25;;;;;;;8.02;4.60;;;;;;;;;;5075569;28;20449;-74
2022/12/20 08:26:10;;;;;;;13.00;4.80;;;;;;;;;;5075214;28;20041;-74
2022/12/20 08:28:56;;;;;;;7.88;4.63;;;;;;;;;;5076062;28;20036;-75
2022/12/20 08:31:41;;;;;;;10.98;5.00;;;;;;;;;;5065871;28;20035;-74
2022/12/20 08:34:27;;;;;;;9.63;4.70;;;;;;;;;;5074629;28;20037;-74
2022/12/20 08:37:14;;;;;;;10.88;6.07;;;;;;;;;;5075474;28;20047;-83
2022/12/20 08:40:00;;;;;;;9.23;4.40;;;;;;;;;;5074885;28;20033;-66
2022/12/20 08:42:46;;;;;;;9.68;4.70;;;;;;;;;;5075091;28;20383;-67
2022/12/20 08:45:32;;;;;;;7.63;4.20;;;;;;;;;;5075535;28;20032;-67
2022/12/20 08:48:17;;;;;;;13.10;4.85;;;;;;;;;;5074442;28;20041;-65
2022/12/20 08:51:05;;;;;;;8.63;4.00;;;;;;;;;;5075048;28;20116;-66
2022/12/20 08:53:51;;;;;;;9.45;4.38;;;;;;;;;;5074660;28;20021;-64
2022/12/20 08:56:36;;;;;;;6.43;3.80;;;;;;;;;;5075486;28;20065;-67
2022/12/20 08:59:22;;;;;;;10.23;4.55;;;;;;;;;;5071636;22;20512;-71
2022/12/20 09:02:07;;;;;;;6.97;3.80;;;;;;;;;;5048299;28;20040;-74
2022/12/20 09:04:53;;;;;;;7.80;4.45;;;;;;;;;;5063085;28;20032;-73
2022/12/20 09:07:38;;;;;;;7.32;4.15;;;;;;;;;;5043352;28;20131;-71
2022/12/20 09:10:23;;;;;;;7.82;4.53;;;;;;;;;;5044375;28;20865;-70
2022/12/20 09:13:09;;;;;;;10.35;4.07;;;;;;;;;;5051070;28;20527;-76
2022/12/20 09:15:54;;;;;;;7.70;4.00;;;;;;;;;;5040859;28;20065;-71
2022/12/20 09:18:40;;;;;;;8.80;5.10;;;;;;;;;;5040138;28;20029;-72
2022/12/20 09:21:25;;;;;;;7.47;4.25;;;;;;;;;;5044826;28;20392;-73
2022/12/20 09:24:10;;;;;;;7.40;3.88;;;;;;;;;;5045237;28;20029;-71
2022/12/20 09:26:56;;;;;;;8.85;4.50;;;;;;;;;;5038663;28;20791;-71
2022/12/20 09:29:41;;;;;;;7.18;4.22;;;;;;;;;;5041976;28;20371;-74
2022/12/20 09:32:26;;;;;;;8.93;4.40;;;;;;;;;;5048188;28;20044;-73
2022/12/20 09:35:11;;;;;;;6.20;3.33;;;;;;;;;;5047012;28;20029;-75
2022/12/20 09:37:57;;;;;;;7.45;3.90;;;;;;;;;;5038127;28;20041;-74
2022/12/20 09:40:47;;;;;;;8.60;3.83;;;;;;;;;;5040984;28;20033;-74
2022/12/20 09:43:32;;;;;;;7.63;3.97;;;;;;;;;;5040893;28;20040;-75
2022/12/20 09:46:18;;;;;;;6.78;4.03;;;;;;;;;;5034248;28;20426;-73
2022/12/20 09:49:03;;;;;;;7.78;3.58;;;;;;;;;;5037777;28;20033;-75
2022/12/20 09:51:51;;;;;;;5.80;3.30;;;;;;;;;;5039314;28;20028;-76
2022/12/20 09:54:49;;;;;;;8.75;4.20;;;;;;;;;;5052755;28;20120;-71
2022/12/20 09:57:43;;;;;;;6.50;3.72;;;;;;;;;;5026463;28;20037;-73
2022/12/20 10:00:33;;;;;;;6.78;3.47;;;;;;;;;;5055261;28;20085;-75
2022/12/20 10:03:28;;;;;;;8.60;4.13;;;;;;;;;;5037922;28;20032;-75
2022/12/20 10:06:13;;;;;;;8.43;3.88;;;;;;;;;;5048372;28;20032;-72
2022/12/20 10:08:59;;;;;;;6.78;3.20;;;;;;;;;;5025504;28;20072;-68
2022/12/20 10:11:44;;;;;;;7.43;3.40;;;;;;;;;;5044801;28;20036;-71
2022/12/20 10:14:30;;;;;;;8.52;4.47;;;;;;;;;;5043766;28;20056;-73
2022/12/20 10:17:21;;;;;;;7.95;3.67;;;;;;;;;;5043270;28;20091;-74
2022/12/20 10:20:10;;;;;;;7.30;3.65;;;;;;;;;;5038894;28;20107;-73
2022/12/20 10:23:16;;;;;;;8.80;4.05;;;;;;;;;;5033829;28;20559;-72
2022/12/20 10:26:07;;;;;;;9.15;3.42;;;;;;;;;;5018163;28;20136;-74
2022/12/20 10:28:52;;;;;;;6.28;3.28;;;;;;;;;;5034489;28;20127;-70
2022/12/20 10:31:37;;;;;;;6.32;3.47;;;;;;;;;;5039679;28;20592;-73
2022/12/20 10:34:22;;;;;;;6.68;3.42;;;;;;;;;;5041634;28;20041;-74
2022/12/20 10:37:17;;;;;;;7.50;3.42;;;;;;;;;;5037529;28;20037;-73
2022/12/20 10:40:03;;;;;;;6.22;3.40;;;;;;;;;;5047707;28;20112;-72
2022/12/20 10:42:48;;;;;;;6.32;3.58;;;;;;;;;;5043096;28;20040;-73
2022/12/20 10:45:38;;;;;;;5.60;3.53;;;;;;;;;;5040421;28;20037;-68
2022/12/20 10:48:29;;;;;;;6.07;3.15;;;;;;;;;;5037666;28;20074;-72
2022/12/20 10:51:19;;;;;;;7.40;3.92;;;;;;;;;;5042221;28;20033;-72
2022/12/20 10:54:04;;;;;;;;;;;;;;;;;;5045938;28;20037;-71
2022/12/20 10:57:00;;;;;;;8.30;3.88;;;;;;;;;;5043042;28;20459;-73
2022/12/20 10:59:59;;;;;;;9.38;3.15;;;;;;;;;;5032682;28;20496;-72
2022/12/20 11:03:00;;;;;;;8.90;3.72;;;;;;;;;;5033885;28;20037;-75
2022/12/20 11:05:54;;;;;;;9.77;4.03;;;;;;;;;;5040977;28;20137;-72
2022/12/20 11:08:39;;;;;;;6.80;3.17;;;;;;;;;;5039318;28;20060;-74
2022/12/20 11:11:25;;;;;;;8.48;3.90;;;;;;;;;;5049374;28;20415;-72
2022/12/20 11:14:14;;;;;;;9.90;3.65;;;;;;;;;;5028964;28;20029;-71
2022/12/20 11:17:03;;;;;;;7.40;3.33;;;;;;;;;;5038855;28;20083;-74
2022/12/20 11:20:07;;;;;;;4.70;3.10;;;;;;;;;;5039383;28;20040;-72
2022/12/20 11:23:07;;;;;;;5.78;3.03;;;;;;;;;;5040363;28;20029;-72
2022/12/20 11:26:03;;;;;;;7.88;3.05;;;;;;;;;;5044248;28;20047;-71
2022/12/20 11:29:04;;;;;;;6.38;3.50;;;;;;;;;;5032937;28;20037;-72
2022/12/20 11:31:54;;;;;;;6.57;3.30;;;;;;;;;;5040090;28;20090;-72
2022/12/20 11:34:39;;;;;;;;;;;;;;;;;;5042893;28;20432;-72
2022/12/20 11:37:25;;;;;;;8.95;3.47;;;;;;;;;;5052193;28;19920;-70
2022/12/20 11:40:19;;;;;;;10.95;4.03;;;;;;;;;;5039627;28;20601;-71
2022/12/20 11:43:16;;;;;;;16.00;5.00;;;;;;;;;;5044870;28;20041;-73
2022/12/20 11:46:02;;;;;;;8.75;3.67;;;;;;;;;;5028287;28;20041;-75
2022/12/20 11:48:53;;;;;;;7.38;3.40;;;;;;;;;;5037551;28;20067;-72
2022/12/20 11:51:42;;;;;;;8.73;3.67;;;;;;;;;;5044508;28;20055;-72
2022/12/20 11:54:29;;;;;;;9.07;3.97;;;;;;;;;;5040208;28;20055;-73
2022/12/20 11:57:22;;;;;;;8.73;3.33;;;;;;;;;;5038886;28;20279;-72
2022/12/20 12:00:12;;;;;;;7.28;3.45;;;;;;;;;;5042030;28;20033;-75
2022/12/20 12:03:09;;;;;;;11.10;4.72;;;;;;;;;;5039487;28;20068;-72
2022/12/20 12:06:01;;;;;;;8.75;4.25;;;;;;;;;;5046625;28;20045;-74
2022/12/20 12:08:57;;;;;;;7.65;3.85;;;;;;;;;;5028502;28;20055;-75
2022/12/20 12:11:56;;;;;;;10.82;3.97;;;;;;;;;;5043963;28;20482;-73
2022/12/20 12:14:47;;;;;;;10.70;4.17;;;;;;;;;;5050284;28;20047;-72
2022/12/20 12:17:42;;;;;;;8.90;4.00;;;;;;;;;;5047060;28;20040;-75
2022/12/20 12:20:34;;;;;;;7.18;3.83;;;;;;;;;;5046035;28;20033;-71
2022/12/20 12:23:28;;;;;;;8.95;3.85;;;;;;;;;;5046850;28;20051;-72
2022/12/20 12:26:25;;;;;;;12.25;4.10;;;;;;;;;;5037927;28;20270;-72
2022/12/20 12:29:12;;;;;;;9.85;4.72;;;;;;;;;;5039179;28;20313;-73
2022/12/20 12:32:15;;;;;;;8.43;4.13;;;;;;;;;;5045425;28;20113;-74
2022/12/20 12:35:10;;;;;;;10.57;4.65;;;;;;;;;;5036997;28;20037;-70
2022/12/20 12:38:20;;;;;;;8.85;4.35;;;;;;;;;;5046700;28;20103;-74
2022/12/20 12:41:23;;;;;;;14.32;4.25;;;;;;;;;;5041575;28;20033;-74
2022/12/20 12:44:17;;;;;;;9.95;4.40;;;;;;;;;;5048992;28;20036;-75
2022/12/20 12:47:12;;;;;;;9.48;4.75;;;;;;;;;;5059599;28;20040;-75
2022/12/20 12:49:57;;;;;;;10.60;4.88;;;;;;;;;;5043337;28;20024;-74
2022/12/20 12:52:48;;;;;;;10.80;5.15;;;;;;;;;;5043174;28;20036;-74
2022/12/20 12:55:35;;;;;;;10.60;4.28;;;;;;;;;;5048740;28;20414;-70
2022/12/20 12:58:23;;;;;;;9.77;4.45;;;;;;;;;;5035793;28;20033;-71
2022/12/20 13:01:10;;;;;;;11.40;5.57;;;;;;;;;;5033294;28;20490;-71
2022/12/20 13:03:59;;;;;;;14.48;5.03;;;;;;;;;;5030224;28;20039;-71
2022/12/20 13:06:47;;;;;;;13.80;5.13;;;;;;;;;;5045261;28;20028;-69
2022/12/20 13:09:32;;;;;;;10.18;4.53;;;;;;;;;;5046504;28;20590;-70
2022/12/20 13:12:33;;;;;;;11.68;4.72;;;;;;;;;;5046873;28;20183;-75
2022/12/20 13:15:21;;;;;;;12.45;5.22;;;;;;;;;;5064990;22;20018;-77
2022/12/20 13:18:06;;;;;;;11.73;5.20;;;;;;;;;;5039156;28;20029;-80
2022/12/20 13:21:10;;;;;;;12.15;4.80;;;;;;;;;;5008707;28;20048;-80
2022/12/20 13:24:16;;;;;;;11.75;5.38;;;;;;;;;;5044234;28;20122;-81
2022/12/20 13:27:22;;;;;;;8.27;4.00;;;;;;;;;;5000059;28;20041;-78
2022/12/20 13:30:10;;;;;;;10.50;4.32;;;;;;;;;;5025817;28;20044;-69
2022/12/20 13:32:57;;;;;;;10.55;4.57;;;;;;;;;;5028564;28;20030;-70
2022/12/20 13:35:53;;;;;;;10.07;4.85;;;;;;;;;;5011775;28;20040;-80
2022/12/20 13:38:48;;;;;;;9.70;4.40;;;;;;;;;;5028969;28;20049;-80
2022/12/20 13:41:33;;;;;;;8.70;4.45;;;;;;;;;;5012073;28;20534;-83
2022/12/20 13:44:28;;;;;;;5.95;3.22;;;;;;;;;;4987874;28;20032;-80
2022/12/20 13:47:22;;;;;;;14.43;4.90;;;;;;;;;;5011753;28;20662;-77
2022/12/20 13:50:20;;;;;;;7.70;3.75;;;;;;;;;;5039043;28;20033;-84
2022/12/20 13:53:05;;;;;;;7.10;3.33;;;;;;;;;;5010521;28;20033;-69
2022/12/20 13:55:50;;;;;;;8.48;3.28;;;;;;;;;;5025692;28;20037;-70
2022/12/20 13:58:45;;;;;;;6.65;3.63;;;;;;;;;;5014060;28;20033;-68
2022/12/20 14:01:31;;;;;;;8.68;3.80;;;;;;;;;;5011154;28;20021;-70
2022/12/20 14:04:17;;;;;;;5.57;3.42;;;;;;;;;;4998156;28;20069;-70
2022/12/20 14:07:03;;;;;;;6.22;2.88;;;;;;;;;;5000295;28;20098;-76
2022/12/20 14:09:54;;;;;;;6.95;3.85;;;;;;;;;;5026697;28;20045;-80
2022/12/20 14:12:43;;;;;;;9.77;3.45;;;;;;;;;;5012060;28;20592;-66
2022/12/20 14:15:32;;;;;;;9.55;3.45;;;;;;;;;;5010958;28;20108;-68
2022/12/20 14:18:19;;;;;;;9.50;3.58;;;;;;;;;;5026006;28;20468;-67
2022/12/20 14:21:05;;;;;;;11.43;4.85;;;;;;;;;;5016858;28;20071;-68
2022/12/20 14:23:52;;;;;;;9.20;4.45;;;;;;;;;;5002348;28;20095;-68
2022/12/20 14:26:39;;;;;;;10.75;4.32;;;;;;;;;;5025342;28;20511;-73
2022/12/20 14:29:28;;;;;;;9.13;5.47;;;;;;;;;;5031921;28;20037;-73
2022/12/20 14:32:19;;;;;;;9.18;4.75;;;;;;;;;;5013016;28;20032;-72
2022/12/20 14:35:04;;;;;;;7.25;4.25;;;;;;;;;;5027882;28;20575;-72
2022/12/20 14:37:58;;;;;;;7.53;4.22;;;;;;;;;;5013698;28;20088;-72
2022/12/20 14:40:43;;;;;;;8.52;4.40;;;;;;;;;;4998788;28;20473;-73
2022/12/20 14:43:33;;;;;;;8.40;4.07;;;;;;;;;;5013473;28;20044;-73
2022/12/20 14:46:18;;;;;;;;;;;;;;;;;;5013795;28;20041;-69
2022/12/20 14:49:14;;;;;;;7.68;3.65;;;;;;;;;;5012825;28;20272;-82
2022/12/20 14:52:15;;;;;;;9.70;5.10;;;;;;;;;;5025462;28;20033;-84
2022/12/20 14:55:07;;;;;;;6.88;3.95;;;;;;;;;;5021526;28;20439;-85
2022/12/20 14:57:55;;;;;;;8.25;4.60;;;;;;;;;;5014805;28;20033;-84
2022/12/20 15:00:53;;;;;;;8.15;4.70;;;;;;;;;;5014735;28;20034;-83
2022/12/20 15:03:47;;;;;;;8.23;5.28;;;;;;;;;;5013223;28;20180;-73
2022/12/20 15:06:36;;;;;;;9.90;4.53;;;;;;;;;;5003488;23;20137;-72
2022/12/20 15:09:21;;;;;;;8.88;4.10;;;;;;;;;;5022228;28;20029;-72
2022/12/20 15:12:07;;;;;;;11.35;5.28;;;;;;;;;;5004913;28;20038;-71
2022/12/20 15:14:52;;;;;;;10.10;5.13;;;;;;;;;;5021093;28;20112;-72
2022/12/20 15:17:37;;;;;;;11.20;5.57;;;;;;;;;;4991338;28;20417;-72
2022/12/20 15:20:22;;;;;;;13.48;5.32;;;;;;;;;;4993849;28;20026;-70
2022/12/20 15:23:11;;;;;;;9.50;4.07;;;;;;;;;;5007190;28;20625;-77
2022/12/20 15:25:57;;;;;;;;;;;;;;;;;;5034897;28;20033;-77
2022/12/20 15:28:42;;;;;;;14.40;5.53;;;;;;;;;;5023288;28;19917;-77
2022/12/20 15:31:28;;;;;;;12.25;5.28;;;;;;;;;;5027310;28;20029;-80
2022/12/20 15:34:16;;;;;;;11.90;4.63;;;;;;;;;;5010089;28;20038;-79
2022/12/20 15:37:03;;;;;;;8.77;4.70;;;;;;;;;;5006000;28;20400;-78
2022/12/20 15:39:48;;;;;;;14.80;5.72;;;;;;;;;;5006263;28;20025;-73
2022/12/20 15:42:34;;;;;;;10.45;4.72;;;;;;;;;;4998673;28;20034;-70
2022/12/20 15:45:19;;;;;;;11.82;5.30;;;;;;;;;;5006459;28;20034;-70
2022/12/20 15:48:04;;;;;;;11.27;4.80;;;;;;;;;;5009069;28;20459;-70
2022/12/20 15:50:51;;;;;;;11.68;5.55;;;;;;;;;;5005443;28;20036;-72
2022/12/20 15:53:37;;;;;;;10.75;4.85;;;;;;;;;;5001793;28;20061;-70
2022/12/20 15:56:23;;;;;;;10.48;5.57;;;;;;;;;;4992062;28;20168;-71
2022/12/20 15:59:11;;;;;;;10.43;5.07;;;;;;;;;;5011538;28;20061;-81
2022/12/20 16:01:56;;;;;;;10.90;4.65;;;;;;;;;;5000343;28;20047;-78
2022/12/20 16:04:41;;;;;;;13.82;5.05;;;;;;;;;;5006768;28;20018;-79
2022/12/20 16:07:27;;;;;;;10.02;4.45;;;;;;;;;;5010272;28;20034;-78
2022/12/20 16:10:13;;;;;;;11.90;5.50;;;;;;;;;;5021041;28;20067;-78
2022/12/20 16:12:58;;;;;;;8.75;4.60;;;;;;;;;;5000738;28;20457;-79
2022/12/20 16:15:43;;;;;;;12.27;5.13;;;;;;;;;;4991205;28;20100;-73
2022/12/20 16:18:29;;;;;;;15.25;5.82;;;;;;;;;;5008833;28;20036;-71
2022/12/20 16:21:18;;;;;;;10.57;4.65;;;;;;;;;;5019194;28;20488;-77
2022/12/20 16:24:03;;;;;;;10.88;4.60;;;;;;;;;;4999077;28;20561;-80
2022/12/20 16:26:49;;;;;;;8.15;4.30;;;;;;;;;;4993947;28;20485;-78
2022/12/20 16:29:34;;;;;;;8.48;4.47;;;;;;;;;;5013210;28;20033;-78
2022/12/20 16:32:20;;;;;;;8.48;4.40;;;;;;;;;;5017432;28;20061;-77
2022/12/20 16:35:09;;;;;;;7.90;4.72;;;;;;;;;;5011949;28;20033;-75
2022/12/20 16:37:55;;;;;;;9.60;4.43;;;;;;;;;;4998536;28;20033;-76
2022/12/20 16:40:41;;;;;;;7.75;3.88;;;;;;;;;;5006570;28;20044;-75
2022/12/20 16:43:26;;;;;;;11.73;4.75;;;;;;;;;;5026620;28;20133;-75
2022/12/20 16:46:12;;;;;;;9.98;4.55;;;;;;;;;;5009187;28;20100;-76